Time;durP1;ratioP1;P1;durP2;ratioP2;P2;SDS_P1;SDS_P2;PMS_P1;PMS_P2;Temp;Humidity;BMP_temperature;BMP_pressure;BME280_temperature;BME280_humidity;BME280_pressure;Samples;Min_cycle;Max_cycle;Signal;HPM_P1;HPM_P2
2022/06/24 00:01:40;;;;;;;;;;;20.60;99.90;;;;;;4986687;28;20038;-32
2022/06/24 00:04:06;;;;;;;3.67;1.90;;;20.50;99.90;;;;;;4984735;28;19922;-32
2022/06/24 00:06:46;;;;;;;4.55;1.73;;;20.40;99.90;;;;;;4973777;28;20681;-32
2022/06/24 00:09:13;;;;;;;2.58;2.38;;;20.40;99.90;;;;;;4982144;28;20398;-32
2022/06/24 00:11:39;;;;;;;2.30;2.00;;;20.30;99.90;;;;;;4986114;28;20046;-32
2022/06/24 00:14:17;;;;;;;2.83;2.25;;;20.30;99.90;;;;;;4987271;28;20081;-32
2022/06/24 00:16:57;;;;;;;3.55;2.10;;;20.20;99.90;;;;;;4972477;28;20042;-32
2022/06/24 00:19:25;;;;;;;3.15;2.17;;;20.20;99.90;;;;;;4985577;28;20787;-32
2022/06/24 00:22:08;;;;;;;2.33;1.95;;;20.10;99.90;;;;;;4984051;28;20058;-32
2022/06/24 00:24:35;;;;;;;2.50;2.08;;;20.10;99.90;;;;;;4986080;28;20042;-32
2022/06/24 00:27:02;;;;;;;5.05;2.25;;;20.10;99.90;;;;;;4971414;28;20054;-32
2022/06/24 00:29:31;;;;;;;3.90;2.00;;;20.10;99.90;;;;;;4984470;28;20492;-32
2022/06/24 00:32:08;;;;;;;5.20;2.17;;;20.00;99.90;;;;;;4984089;28;20046;-32
2022/06/24 00:34:38;;;;;;;4.20;2.00;;;20.00;99.90;;;;;;4985168;28;20068;-32
2022/06/24 00:37:23;;;;;;;3.77;2.10;;;19.90;99.90;;;;;;4970843;28;20525;-32
2022/06/24 00:39:50;;;;;;;4.10;1.92;;;19.90;99.90;;;;;;4986953;28;20049;-32
2022/06/24 00:42:17;;;;;;;8.07;2.20;;;19.80;99.90;;;;;;4985141;28;20125;-32
2022/06/24 00:45:09;;;;;;;5.30;2.15;;;19.70;99.90;;;;;;4985618;28;20081;-33
2022/06/24 00:47:37;;;;;;;4.47;2.22;;;19.70;99.90;;;;;;4969291;28;20047;-32
2022/06/24 00:50:15;;;;;;;3.78;2.58;;;19.70;99.90;;;;;;4985332;28;20034;-32
2022/06/24 00:52:41;;;;;;;3.90;2.15;;;19.60;99.90;;;;;;4983957;28;20456;-32
2022/06/24 00:55:07;;;;;;;5.47;2.30;;;19.60;99.90;;;;;;4986089;28;20058;-32
2022/06/24 00:57:38;;;;;;;3.97;2.15;;;19.50;99.90;;;;;;4968227;28;20066;-32
2022/06/24 01:00:04;;;;;;;3.05;2.03;;;19.50;99.90;;;;;;4985343;28;20034;-32
2022/06/24 01:02:31;;;;;;;3.30;2.28;;;19.40;99.90;;;;;;4981943;28;20046;-32
2022/06/24 01:05:08;;;;;;;4.10;2.60;;;19.40;99.90;;;;;;4985927;28;20058;-32
2022/06/24 01:07:40;;;;;;;5.07;2.28;;;19.40;99.90;;;;;;4967949;28;20074;-32
2022/06/24 01:10:08;;;;;;;3.53;2.42;;;19.30;99.90;;;;;;4983520;28;20042;-32
2022/06/24 01:12:34;;;;;;;2.92;2.30;;;19.30;99.90;;;;;;4985444;28;20050;-32
2022/06/24 01:15:01;;;;;;;2.65;2.20;;;19.20;99.90;;;;;;4986389;28;20053;-32
2022/06/24 01:17:27;;;;;;;3.38;2.30;;;19.20;99.90;;;;;;4971244;28;20047;-33
2022/06/24 01:19:53;;;;;;;3.35;2.72;;;19.20;99.90;;;;;;4983192;28;20050;-32
2022/06/24 01:22:24;;;;;;;4.07;2.80;;;19.20;99.90;;;;;;4985431;28;20046;-33
2022/06/24 01:24:50;;;;;;;5.53;2.50;;;19.20;99.90;;;;;;4985184;28;20039;-32
2022/06/24 01:27:16;;;;;;;5.53;2.55;;;19.10;99.90;;;;;;4969420;28;20049;-32
2022/06/24 01:29:42;;;;;;;4.38;2.10;;;19.20;99.90;;;;;;4984613;28;20050;-32
2022/06/24 01:32:08;;;;;;;2.58;2.20;;;19.20;99.90;;;;;;4984609;28;20056;-32
2022/06/24 01:34:34;;;;;;;5.65;2.60;;;19.10;99.90;;;;;;4985111;28;20042;-32
2022/06/24 01:36:59;;;;;;;3.55;2.58;;;19.00;99.90;;;;;;4969210;28;20046;-32
2022/06/24 01:39:25;;;;;;;5.25;2.67;;;19.00;99.90;;;;;;4984334;28;20409;-32
2022/06/24 01:41:52;;;;;;;5.75;2.80;;;19.00;99.90;;;;;;4985375;28;20052;-32
2022/06/24 01:44:19;;;;;;;3.92;2.60;;;19.00;99.90;;;;;;4986317;28;20050;-32
2022/06/24 01:46:45;;;;;;;3.03;2.53;;;18.90;99.90;;;;;;4975263;28;20081;-32
2022/06/24 01:49:11;;;;;;;3.55;2.80;;;18.90;99.90;;;;;;4985413;28;20081;-32
2022/06/24 01:51:39;;;;;;;4.38;2.65;;;18.90;99.90;;;;;;4987255;28;20054;-32
2022/06/24 01:54:05;;;;;;;6.00;2.63;;;18.80;99.90;;;;;;4988568;28;20043;-32
2022/06/24 01:56:31;;;;;;;6.38;2.60;;;18.80;99.90;;;;;;4975484;28;20053;-32
2022/06/24 01:58:57;;;;;;;3.03;2.60;;;18.80;99.90;;;;;;4983953;28;20042;-32
2022/06/24 02:01:22;;;;;;;4.45;2.58;;;18.70;99.90;;;;;;4989066;28;20053;-32
2022/06/24 02:03:49;;;;;;;5.70;2.50;;;18.70;99.90;;;;;;4987273;28;20058;-32
2022/06/24 02:06:15;;;;;;;5.65;2.80;;;18.60;99.90;;;;;;4979138;28;20568;-32
2022/06/24 02:08:41;;;;;;;5.75;3.15;;;18.60;99.90;;;;;;4980586;28;20490;-32
2022/06/24 02:13:55;;;;;;;4.57;2.70;;;18.60;99.90;;;;;;4989073;28;20072;-32
2022/06/24 02:16:21;;;;;;;5.45;3.00;;;18.50;99.90;;;;;;4980310;28;20069;-32
2022/06/24 02:18:48;;;;;;;10.20;3.25;;;18.50;99.90;;;;;;4984209;28;20054;-32
2022/06/24 02:21:14;;;;;;;3.72;3.08;;;18.40;99.90;;;;;;4987916;28;20045;-32
2022/06/24 02:23:41;;;;;;;7.30;3.58;;;18.40;99.90;;;;;;4987593;28;20050;-32
2022/06/24 02:26:07;;;;;;;4.03;3.30;;;18.40;99.90;;;;;;4986455;28;20053;-32
2022/06/24 02:28:33;;;;;;;4.80;3.67;;;18.50;99.90;;;;;;4976276;28;20133;-32
2022/06/24 02:31:00;;;;;;;5.60;3.67;;;18.30;99.90;;;;;;4986791;28;20046;-32
2022/06/24 02:33:29;;;;;;;5.00;3.45;;;18.20;99.90;;;;;;4986996;28;20821;-32
2022/06/24 02:35:55;;;;;;;10.05;3.97;;;18.30;99.90;;;;;;4987311;28;20057;-36
2022/06/24 02:38:21;;;;;;;5.10;3.83;;;18.30;99.90;;;;;;4972396;28;20046;-37
2022/06/24 02:40:52;;;;;;;5.35;3.83;;;18.30;99.90;;;;;;4987199;28;20057;-36
2022/06/24 02:43:25;;;;;;;6.68;3.65;;;18.20;99.90;;;;;;4985600;28;20125;-36
2022/06/24 02:46:05;;;;;;;4.82;3.78;;;18.20;99.90;;;;;;4987534;28;20050;-37
2022/06/24 02:48:33;;;;;;;7.63;3.90;;;18.20;99.90;;;;;;4970986;28;20130;-37
2022/06/24 02:51:03;;;;;;;6.43;3.72;;;18.20;99.90;;;;;;4985767;28;20112;-36
2022/06/24 02:53:30;;;;;;;5.68;4.10;;;18.20;99.90;;;;;;4985158;28;20047;-36
2022/06/24 02:56:04;;;;;;;4.40;3.70;;;18.20;99.90;;;;;;4987704;28;20117;-36
2022/06/24 02:58:31;;;;;;;4.57;3.90;;;18.20;99.90;;;;;;4970741;28;20505;-37
2022/06/24 03:00:57;;;;;;;5.20;3.75;;;18.20;99.90;;;;;;4987101;28;20472;-37
2022/06/24 03:03:23;;;;;;;5.18;3.92;;;18.20;99.90;;;;;;4987118;28;20089;-37
2022/06/24 03:05:50;;;;;;;6.35;3.95;;;18.20;99.90;;;;;;4986409;28;20050;-37
2022/06/24 03:08:18;;;;;;;6.53;3.90;;;18.10;99.90;;;;;;4971315;28;20043;-36
2022/06/24 03:10:44;;;;;;;4.70;3.90;;;18.20;99.90;;;;;;4986546;28;20149;-37
2022/06/24 03:13:11;;;;;;;6.18;3.80;;;18.20;99.90;;;;;;4987223;28;20073;-36
2022/06/24 03:15:37;;;;;;;6.68;3.90;;;18.20;99.90;;;;;;4989349;28;20053;-37
2022/06/24 03:18:03;;;;;;;5.22;3.88;;;18.20;99.90;;;;;;4972706;28;20718;-37
2022/06/24 03:20:29;;;;;;;6.10;4.22;;;18.20;99.90;;;;;;4986422;28;20068;-37
2022/06/24 03:22:55;;;;;;;7.25;3.92;;;18.20;99.90;;;;;;4986153;28;20042;-37
2022/06/24 03:25:21;;;;;;;6.47;4.30;;;18.20;99.90;;;;;;4985585;28;20050;-37
2022/06/24 03:27:47;;;;;;;7.78;3.80;;;18.20;99.90;;;;;;4971350;28;20060;-37
2022/06/24 03:30:13;;;;;;;6.18;3.72;;;18.20;99.90;;;;;;4985655;28;20034;-37
2022/06/24 03:32:40;;;;;;;4.65;3.75;;;18.20;99.90;;;;;;4986008;28;20050;-37
2022/06/24 03:35:06;;;;;;;5.53;4.43;;;18.20;99.90;;;;;;4987673;28;20046;-37
2022/06/24 03:37:33;;;;;;;6.80;4.10;;;18.20;99.90;;;;;;4967348;28;20053;-40
2022/06/24 03:39:59;;;;;;;5.63;3.92;;;18.20;99.90;;;;;;4986166;28;20140;-39
2022/06/24 03:42:26;;;;;;;6.57;4.72;;;18.20;99.90;;;;;;4984192;28;20525;-39
2022/06/24 03:44:52;;;;;;;6.32;4.00;;;18.20;99.90;;;;;;4987304;28;20038;-39
2022/06/24 03:47:18;;;;;;;5.53;4.18;;;18.20;99.90;;;;;;4970783;28;20065;-39
2022/06/24 03:49:43;;;;;;;4.95;4.22;;;18.20;99.90;;;;;;4985817;28;20058;-39
2022/06/24 03:52:10;;;;;;;5.93;3.95;;;18.20;99.90;;;;;;4986276;28;20030;-39
2022/06/24 03:54:35;;;;;;;6.00;4.13;;;18.30;99.90;;;;;;4985882;28;20077;-39
2022/06/24 03:57:01;;;;;;;4.35;3.92;;;18.30;99.90;;;;;;4971269;28;20148;-38
2022/06/24 03:59:27;;;;;;;7.45;4.55;;;18.30;99.90;;;;;;4985210;28;20054;-38
2022/06/24 04:01:53;;;;;;;5.63;4.20;;;18.30;99.90;;;;;;4986981;28;20046;-37
2022/06/24 04:04:19;;;;;;;4.35;3.90;;;18.30;99.90;;;;;;4983629;28;20050;-37
2022/06/24 04:06:45;;;;;;;5.32;3.90;;;18.30;99.90;;;;;;4970493;28;20057;-38
2022/06/24 04:09:10;;;;;;;7.03;4.13;;;18.40;99.90;;;;;;4982923;28;20042;-38
2022/06/24 04:11:36;;;;;;;6.72;4.35;;;18.40;99.90;;;;;;4986211;28;20034;-38
2022/06/24 04:14:03;;;;;;;4.38;3.92;;;18.40;99.90;;;;;;4987453;28;20042;-37
2022/06/24 04:16:28;;;;;;;6.50;4.07;;;18.40;99.90;;;;;;4975883;28;20409;-38
2022/06/24 04:18:54;;;;;;;4.63;4.22;;;18.40;99.90;;;;;;4981506;28;20057;-38
2022/06/24 04:21:20;;;;;;;5.22;3.97;;;18.40;99.90;;;;;;4986795;28;20045;-38
2022/06/24 04:23:49;;;;;;;4.75;4.25;;;18.50;99.90;;;;;;4983763;28;20602;-38
2022/06/24 04:26:16;;;;;;;5.70;3.95;;;18.50;99.90;;;;;;4975848;28;20382;-39
2022/06/24 04:28:42;;;;;;;4.80;4.22;;;18.50;99.90;;;;;;4977092;28;20052;-37
2022/06/24 04:31:07;;;;;;;6.22;3.33;;;18.60;99.90;;;;;;4985857;28;20414;-37
2022/06/24 04:33:33;;;;;;;5.25;4.32;;;18.60;99.90;;;;;;4986477;28;20177;-37
2022/06/24 04:35:59;;;;;;;5.53;4.20;;;18.60;99.90;;;;;;4985472;28;20533;-37
2022/06/24 04:38:25;;;;;;;5.32;3.72;;;18.70;99.90;;;;;;4970812;28;20051;-37
2022/06/24 04:40:51;;;;;;;6.72;4.50;;;18.70;99.90;;;;;;4985054;28;20058;-38
2022/06/24 04:43:16;;;;;;;7.97;4.75;;;18.70;99.90;;;;;;4985869;28;20050;-37
2022/06/24 04:45:46;;;;;;;6.03;3.90;;;18.80;99.90;;;;;;4985834;28;20034;-43
2022/06/24 04:48:13;;;;;;;4.68;3.60;;;18.80;99.90;;;;;;4969759;28;20050;-38
2022/06/24 04:50:39;;;;;;;4.95;3.83;;;18.90;99.90;;;;;;4985961;28;20046;-38
2022/06/24 04:53:04;;;;;;;5.25;3.72;;;19.00;99.90;;;;;;4984818;28;20700;-37
2022/06/24 04:55:30;;;;;;;3.90;3.53;;;19.00;99.90;;;;;;4983807;28;20053;-38
2022/06/24 04:57:56;;;;;;;8.05;3.50;;;19.00;99.90;;;;;;4969813;28;20053;-37
2022/06/24 05:00:21;;;;;;;7.45;3.95;;;19.20;99.90;;;;;;4985968;28;20049;-37
2022/06/24 05:02:48;;;;;;;5.43;4.10;;;19.20;99.90;;;;;;4984693;28;20069;-37
2022/06/24 05:05:14;;;;;;;6.72;4.40;;;19.30;99.90;;;;;;4988263;28;20064;-38
2022/06/24 05:07:40;;;;;;;5.35;3.60;;;19.40;99.90;;;;;;4969929;28;21378;-37
2022/06/24 05:10:06;;;;;;;10.05;3.97;;;19.40;99.90;;;;;;4983882;28;20042;-38
2022/06/24 05:12:32;;;;;;;5.38;3.90;;;19.50;99.90;;;;;;4980363;28;20212;-39
2022/06/24 05:14:58;;;;;;;6.25;3.72;;;19.60;99.90;;;;;;4984580;28;20133;-39
2022/06/24 05:17:24;;;;;;;5.85;3.90;;;19.70;99.90;;;;;;4963648;28;20104;-38
2022/06/24 05:19:50;;;;;;;12.77;4.40;;;19.70;99.90;;;;;;4973170;28;20108;-38
2022/06/24 05:22:16;;;;;;;6.82;4.70;;;19.80;99.90;;;;;;4980986;28;20050;-38
2022/06/24 05:24:42;;;;;;;7.00;4.40;;;19.90;99.90;;;;;;4974191;28;20411;-38
2022/06/24 05:27:08;;;;;;;5.22;4.18;;;20.00;99.90;;;;;;4963262;28;20050;-40
2022/06/24 05:29:34;;;;;;;5.32;4.40;;;20.00;99.90;;;;;;4980453;28;20084;-40
2022/06/24 05:31:59;;;;;;;9.32;5.07;;;20.10;99.90;;;;;;4987516;28;20137;-38
2022/06/24 05:34:25;;;;;;;7.43;5.50;;;20.10;99.90;;;;;;4986938;28;20050;-38
2022/06/24 05:36:51;;;;;;;13.50;6.47;;;20.20;99.90;;;;;;4972679;28;20046;-38
2022/06/24 05:39:16;;;;;;;9.43;6.82;;;20.20;99.90;;;;;;4986509;28;20497;-39
2022/06/24 05:41:43;;;;;;;10.23;7.88;;;20.30;99.90;;;;;;4987867;28;20048;-39
2022/06/24 05:44:09;;;;;;;12.45;8.38;;;20.40;99.90;;;;;;4987450;28;20129;-39
2022/06/24 05:46:35;;;;;;;10.98;9.25;;;20.50;99.90;;;;;;4974644;28;20057;-38
2022/06/24 05:49:01;;;;;;;14.50;9.82;;;20.50;99.90;;;;;;4983714;28;20398;-39
2022/06/24 05:51:28;;;;;;;16.80;9.20;;;20.60;99.90;;;;;;4988878;28;20484;-39
2022/06/24 05:56:38;;;;;;;24.67;6.65;;;20.80;99.90;;;;;;4974454;28;20050;-38
2022/06/24 05:59:04;;;;;;;24.65;6.03;;;20.80;99.90;;;;;;4985652;28;20466;-38
2022/06/24 06:01:30;;;;;;;14.75;4.57;;;20.90;99.90;;;;;;4991197;28;20034;-39
2022/06/24 06:03:55;;;;;;;25.90;5.03;;;21.00;99.90;;;;;;4985762;28;20133;-38
2022/06/24 06:06:21;;;;;;;14.60;4.38;;;21.00;99.90;;;;;;4978072;28;20056;-38
2022/06/24 06:08:47;;;;;;;26.35;4.75;;;21.10;99.90;;;;;;4982320;28;20442;-38
2022/06/24 06:11:25;;;;;;;12.35;4.35;;;21.10;99.90;;;;;;4988438;28;20854;-38
2022/06/24 06:13:53;;;;;;;16.60;3.72;;;21.10;99.90;;;;;;4988020;28;20042;-38
2022/06/24 06:16:21;;;;;;;12.73;3.80;;;21.10;99.90;;;;;;4980305;28;20042;-39
2022/06/24 06:18:48;;;;;;;12.13;3.70;;;21.10;99.90;;;;;;4981625;28;20133;-39
2022/06/24 06:21:14;;;;;;;10.25;3.83;;;21.10;99.90;;;;;;4988241;28;20054;-39
2022/06/24 06:23:41;;;;;;;8.30;3.70;;;21.10;99.90;;;;;;4987878;28;20047;-38
2022/06/24 06:26:08;;;;;;;9.27;3.60;;;21.00;99.90;;;;;;4988341;28;20867;-38
2022/06/24 06:28:35;;;;;;;12.77;3.30;;;20.90;99.90;;;;;;4975139;28;20038;-38
2022/06/24 06:31:01;;;;;;;19.02;5.18;;;21.00;99.90;;;;;;4986587;28;20061;-38
2022/06/24 06:33:27;;;;;;;7.07;3.80;;;20.90;99.90;;;;;;4986513;28;20502;-38
2022/06/24 06:36:01;;;;;;;10.18;3.78;;;20.90;99.90;;;;;;4986666;28;20410;-38
2022/06/24 06:38:27;;;;;;;12.90;3.50;;;20.90;99.90;;;;;;4972484;28;20046;-36
2022/06/24 06:40:53;;;;;;;10.35;3.88;;;20.80;99.90;;;;;;4986495;28;20365;-37
2022/06/24 06:43:19;;;;;;;11.05;3.83;;;20.70;99.90;;;;;;4985945;28;20046;-37
2022/06/24 06:45:44;;;;;;;6.63;3.80;;;20.70;99.90;;;;;;4966687;28;20319;-37
2022/06/24 06:48:10;;;;;;;6.82;3.47;;;20.70;99.90;;;;;;4959209;28;20042;-37
2022/06/24 06:50:35;;;;;;;9.57;3.70;;;20.70;99.90;;;;;;4980262;28;20391;-36
2022/06/24 06:53:02;;;;;;;10.57;3.58;;;20.70;99.90;;;;;;4982392;28;20522;-37
2022/06/24 06:55:27;;;;;;;8.02;3.75;;;20.70;99.90;;;;;;4984452;28;20046;-36
2022/06/24 06:57:53;;;;;;;5.32;3.10;;;20.70;99.90;;;;;;4968202;28;20096;-38
2022/06/24 07:00:20;;;;;;;9.15;3.78;;;20.80;99.90;;;;;;4982569;28;20422;-37
2022/06/24 07:02:46;;;;;;;7.00;3.30;;;20.80;99.90;;;;;;4983539;28;20053;-38
2022/06/24 07:05:12;;;;;;;5.30;3.50;;;20.80;99.90;;;;;;4985285;28;20042;-38
2022/06/24 07:07:37;;;;;;;8.43;3.63;;;20.80;99.90;;;;;;4969589;28;20481;-38
2022/06/24 07:10:03;;;;;;;7.20;3.30;;;20.90;99.90;;;;;;4982768;28;20441;-38
2022/06/24 07:12:29;;;;;;;5.00;3.22;;;20.90;99.90;;;;;;4984782;28;20054;-37
2022/06/24 07:14:55;;;;;;;8.30;3.50;;;20.90;99.90;;;;;;4970194;28;20050;-38
2022/06/24 07:17:21;;;;;;;10.57;3.55;;;20.90;99.90;;;;;;4971413;28;20061;-39
2022/06/24 07:19:47;;;;;;;7.68;3.80;;;20.90;99.90;;;;;;4982848;28;20193;-38
2022/06/24 07:22:14;;;;;;;7.82;3.92;;;20.80;99.90;;;;;;4982580;28;20073;-38
2022/06/24 07:24:40;;;;;;;9.18;3.60;;;20.80;99.90;;;;;;4984182;28;20152;-38
2022/06/24 07:27:08;;;;;;;6.43;3.80;;;20.80;99.90;;;;;;4956306;28;20061;-38
2022/06/24 07:29:35;;;;;;;6.82;3.38;;;20.80;99.90;;;;;;4984544;28;20057;-39
2022/06/24 07:32:06;;;;;;;5.78;3.38;;;20.80;99.90;;;;;;4985149;28;20119;-39
2022/06/24 07:34:32;;;;;;;;;;;20.80;99.90;;;;;;4984708;28;20427;-38
2022/06/24 07:36:59;;;;;;;9.18;2.80;;;20.70;99.90;;;;;;4970021;28;20008;-38
2022/06/24 07:39:25;;;;;;;5.32;3.40;;;20.70;99.90;;;;;;4984068;28;20561;-38
2022/06/24 07:41:51;;;;;;;7.35;3.00;;;20.70;99.90;;;;;;4984268;28;20125;-38
2022/06/24 07:44:16;;;;;;;8.93;3.10;;;20.60;99.90;;;;;;4984869;28;20049;-37
2022/06/24 07:46:42;;;;;;;7.90;3.10;;;20.60;99.90;;;;;;4971559;28;20039;-39
2022/06/24 07:49:08;;;;;;;6.70;2.97;;;20.50;99.90;;;;;;4983544;28;20065;-38
2022/06/24 07:51:34;;;;;;;6.82;2.83;;;20.40;99.90;;;;;;4984104;28;20501;-38
2022/06/24 07:53:59;;;;;;;7.82;3.15;;;20.40;99.90;;;;;;4982980;28;20050;-38
2022/06/24 07:59:09;;;;;;;4.90;3.00;;;20.30;99.90;;;;;;4983647;28;20525;-38
2022/06/24 08:01:35;;;;;;;7.32;3.30;;;20.30;99.90;;;;;;4986169;28;20038;-39
2022/06/24 08:04:07;;;;;;;8.45;2.95;;;20.30;99.90;;;;;;4967362;28;20054;-39
2022/06/24 08:06:37;;;;;;;6.30;3.00;;;20.30;99.90;;;;;;4971806;28;20042;-37
2022/06/24 08:09:04;;;;;;;7.63;2.70;;;20.30;99.90;;;;;;4984126;28;20497;-39
2022/06/24 08:11:30;;;;;;;9.60;3.25;;;20.30;99.90;;;;;;4984757;28;20050;-38
2022/06/24 08:13:55;;;;;;;8.82;3.13;;;20.30;99.90;;;;;;4971414;28;20149;-38
2022/06/24 08:16:22;;;;;;;6.50;2.88;;;20.30;99.90;;;;;;4973756;28;20056;-38
2022/06/24 08:18:49;;;;;;;7.43;2.92;;;20.30;99.90;;;;;;4977761;28;20101;-37
2022/06/24 08:21:15;;;;;;;5.65;2.30;;;20.20;99.90;;;;;;4980743;28;20294;-36
2022/06/24 08:23:41;;;;;;;7.03;2.72;;;20.30;99.90;;;;;;4983003;28;20675;-37
2022/06/24 08:26:06;;;;;;;8.57;2.72;;;20.30;99.90;;;;;;4980836;28;20050;-38
2022/06/24 08:28:32;;;;;;;4.72;2.80;;;20.30;99.90;;;;;;4970521;28;20050;-37
2022/06/24 08:30:58;;;;;;;9.65;3.50;;;20.30;99.90;;;;;;4984406;28;20262;-37
2022/06/24 08:33:23;;;;;;;8.93;3.00;;;20.40;99.90;;;;;;4982987;28;20085;-37
2022/06/24 08:35:50;;;;;;;5.55;2.85;;;20.40;99.90;;;;;;4983258;28;20390;-35
2022/06/24 08:38:18;;;;;;;8.30;3.60;;;20.40;99.90;;;;;;4966808;28;20049;-36
2022/06/24 08:40:49;;;;;;;5.53;3.00;;;20.40;99.90;;;;;;4981288;28;20148;-38
2022/06/24 08:43:18;;;;;;;5.72;2.85;;;20.40;99.90;;;;;;4980373;28;20433;-37
2022/06/24 08:45:43;;;;;;;6.03;3.00;;;20.50;99.90;;;;;;4981717;28;20462;-37
2022/06/24 08:48:10;;;;;;;5.53;3.08;;;20.50;99.90;;;;;;4966675;28;20133;-37
2022/06/24 08:50:36;;;;;;;4.60;2.60;;;20.50;99.90;;;;;;4983847;28;20035;-37
2022/06/24 08:53:07;;;;;;;7.68;3.00;;;20.50;99.90;;;;;;4984760;28;20069;-37
2022/06/24 08:55:40;;;;;;;4.53;3.00;;;20.50;99.90;;;;;;4987922;28;20038;-37
2022/06/24 08:58:07;;;;;;;6.45;3.00;;;20.50;99.90;;;;;;4972515;28;20046;-37
2022/06/24 09:00:33;;;;;;;8.25;3.03;;;20.50;99.90;;;;;;4986557;28;20125;-37
2022/06/24 09:02:59;;;;;;;10.38;3.35;;;20.60;99.90;;;;;;4987617;28;20046;-36
2022/06/24 09:05:28;;;;;;;7.47;3.17;;;20.60;99.90;;;;;;4988160;28;20042;-37
2022/06/24 09:08:13;;;;;;;8.18;3.10;;;20.60;99.90;;;;;;4972138;28;20133;-37
2022/06/24 09:10:42;;;;;;;8.50;3.80;;;20.50;99.90;;;;;;4986337;28;20050;-37
2022/06/24 09:13:17;;;;;;;7.07;3.30;;;20.50;99.90;;;;;;4987120;28;20069;-38
2022/06/24 09:15:53;;;;;;;6.35;3.50;;;20.60;99.90;;;;;;4989070;28;20064;-37
2022/06/24 09:18:24;;;;;;;10.45;3.97;;;20.60;99.90;;;;;;4970201;28;20053;-37
2022/06/24 09:20:55;;;;;;;7.50;4.00;;;20.70;99.90;;;;;;4986069;28;20053;-36
2022/06/24 09:23:21;;;;;;;9.43;4.20;;;20.70;99.90;;;;;;4986736;28;20491;-37
2022/06/24 09:25:48;;;;;;;10.55;4.03;;;20.70;99.90;;;;;;4988813;28;20141;-37
2022/06/24 09:28:27;;;;;;;4.97;3.80;;;20.70;99.90;;;;;;4972023;28;20497;-37
2022/06/24 09:31:03;;;;;;;5.20;3.58;;;20.60;99.90;;;;;;4988189;28;20050;-37
2022/06/24 09:33:39;;;;;;;9.68;4.10;;;20.60;99.90;;;;;;4989267;28;20054;-37
2022/06/24 09:36:12;;;;;;;9.88;4.30;;;20.60;99.90;;;;;;4987043;28;20038;-37
2022/06/24 09:39:03;;;;;;;9.27;4.00;;;20.60;99.90;;;;;;4976829;28;20048;-37
2022/06/24 09:41:30;;;;;;;11.98;3.95;;;20.60;99.90;;;;;;4986705;28;20054;-37
2022/06/24 09:44:01;;;;;;;8.02;4.10;;;20.60;99.90;;;;;;4984710;28;20072;-37
2022/06/24 09:46:27;;;;;;;;;;;20.60;99.90;;;;;;4974111;28;20491;-38
2022/06/24 09:49:02;;;;;;;9.98;4.35;;;20.60;99.90;;;;;;4980959;28;19926;-36
2022/06/24 09:51:29;;;;;;;8.45;3.85;;;20.60;99.90;;;;;;4985018;28;20049;-37
2022/06/24 09:53:55;;;;;;;8.77;4.10;;;20.60;99.90;;;;;;4986241;28;20144;-37
2022/06/24 09:56:22;;;;;;;9.23;4.05;;;20.50;99.90;;;;;;4975175;28;20054;-36
2022/06/24 10:01:34;;;;;;;8.75;4.13;;;20.50;99.90;;;;;;4986267;28;20057;-36
2022/06/24 10:04:04;;;;;;;8.90;4.25;;;20.50;99.90;;;;;;4984920;28;20057;-37
2022/06/24 10:06:32;;;;;;;6.30;3.88;;;20.40;99.90;;;;;;4976915;28;20081;-37
2022/06/24 10:09:01;;;;;;;5.40;4.10;;;20.40;99.90;;;;;;4984471;28;20766;-36
2022/06/24 10:11:27;;;;;;;10.90;5.43;;;20.40;99.90;;;;;;4988197;28;20054;-37
2022/06/24 10:13:54;;;;;;;12.10;5.13;;;20.40;99.90;;;;;;4989024;28;20042;-37
2022/06/24 10:16:20;;;;;;;8.88;5.00;;;20.40;99.90;;;;;;4981724;28;20445;-37
2022/06/24 10:18:49;;;;;;;7.97;4.78;;;20.30;99.90;;;;;;4982104;28;20074;-37
2022/06/24 10:21:16;;;;;;;9.13;4.80;;;20.30;99.90;;;;;;4987070;28;20481;-37
2022/06/24 10:23:50;;;;;;;9.82;4.82;;;20.20;99.90;;;;;;4986464;28;20050;-38
2022/06/24 10:26:25;;;;;;;8.98;5.30;;;20.20;99.90;;;;;;4976199;28;20117;-39
2022/06/24 10:29:05;;;;;;;8.27;5.15;;;20.20;99.90;;;;;;4983071;28;20082;-37
2022/06/24 10:31:49;;;;;;;9.65;5.88;;;20.10;99.90;;;;;;4982913;28;20050;-37
2022/06/24 10:34:28;;;;;;;13.65;6.05;;;20.10;99.90;;;;;;4972931;28;20185;-38
2022/06/24 10:37:14;;;;;;;7.70;4.43;;;20.10;99.90;;;;;;4965768;28;20054;-37
2022/06/24 10:39:55;;;;;;;5.95;4.03;;;20.00;99.90;;;;;;4974598;28;20059;-40
2022/06/24 10:42:22;;;;;;;6.35;3.90;;;19.90;99.90;;;;;;4981041;28;20046;-37
2022/06/24 10:45:01;;;;;;;6.15;3.10;;;19.80;99.90;;;;;;4984578;28;20046;-38
2022/06/24 10:47:34;;;;;;;4.63;3.50;;;19.70;99.90;;;;;;4965735;28;20049;-37
2022/06/24 10:50:03;;;;;;;3.95;2.90;;;19.60;99.90;;;;;;4982965;28;20452;-37
2022/06/24 10:52:37;;;;;;;3.80;2.85;;;19.50;99.90;;;;;;4983163;28;20145;-38
2022/06/24 10:55:15;;;;;;;3.53;2.65;;;19.30;99.90;;;;;;4983890;28;20377;-38
2022/06/24 10:57:46;;;;;;;3.92;2.58;;;19.30;99.90;;;;;;4967982;28;20050;-37
2022/06/24 11:00:20;;;;;;;3.67;2.78;;;19.30;99.90;;;;;;4983645;28;20121;-37
2022/06/24 11:03:07;;;;;;;4.30;2.83;;;19.20;99.90;;;;;;4982781;28;20053;-37
2022/06/24 11:05:33;;;;;;;5.07;2.72;;;19.10;99.90;;;;;;4976519;28;20506;-37
2022/06/24 11:08:00;;;;;;;6.10;2.47;;;19.00;99.90;;;;;;4971072;28;20066;-37
2022/06/24 11:10:30;;;;;;;5.05;2.78;;;19.00;99.90;;;;;;4983576;28;20463;-36
2022/06/24 11:13:00;;;;;;;4.00;2.33;;;18.90;99.90;;;;;;4984773;28;20046;-37
2022/06/24 11:15:46;;;;;;;3.63;2.85;;;18.90;99.90;;;;;;4991804;28;20069;-37
2022/06/24 11:18:16;;;;;;;4.57;2.80;;;18.80;99.90;;;;;;4969543;28;20413;-37
2022/06/24 11:20:52;;;;;;;4.60;2.70;;;18.80;99.90;;;;;;4985686;28;20046;-37
2022/06/24 11:23:19;;;;;;;7.35;2.83;;;18.80;99.90;;;;;;4988720;28;20097;-36
2022/06/24 11:25:51;;;;;;;5.47;3.20;;;18.80;99.90;;;;;;4985639;28;20061;-36
2022/06/24 11:28:23;;;;;;;4.53;2.80;;;18.80;99.90;;;;;;4971174;28;20054;-35
2022/06/24 11:30:50;;;;;;;6.05;2.33;;;18.70;99.90;;;;;;4985432;28;20403;-40
2022/06/24 11:33:16;;;;;;;3.08;2.65;;;18.70;99.90;;;;;;4986727;28;20603;-38
2022/06/24 11:35:42;;;;;;;3.90;2.15;;;18.70;99.90;;;;;;4985101;28;20039;-36
2022/06/24 11:38:09;;;;;;;4.47;2.53;;;18.70;99.90;;;;;;4968398;28;20042;-37
2022/06/24 11:40:36;;;;;;;5.10;2.63;;;18.70;99.90;;;;;;4982274;28;20053;-36
2022/06/24 11:43:05;;;;;;;7.72;2.72;;;18.80;99.90;;;;;;4983268;28;20046;-38
2022/06/24 11:45:42;;;;;;;5.10;2.33;;;18.80;99.90;;;;;;4985128;28;20057;-38
2022/06/24 11:48:11;;;;;;;3.78;2.38;;;18.70;99.90;;;;;;4970218;28;20353;-37
2022/06/24 11:50:38;;;;;;;4.15;2.40;;;18.70;99.90;;;;;;4981985;28;20050;-37
2022/06/24 11:53:05;;;;;;;4.35;2.38;;;18.70;99.90;;;;;;4968655;28;20069;-37
2022/06/24 11:55:37;;;;;;;3.72;2.70;;;18.80;99.90;;;;;;4985292;28;20397;-38
2022/06/24 11:58:05;;;;;;;2.58;2.25;;;18.80;99.90;;;;;;4969689;28;20050;-38
2022/06/24 12:00:36;;;;;;;4.22;2.50;;;18.80;99.90;;;;;;4985278;28;20074;-37
2022/06/24 12:03:05;;;;;;;4.50;2.78;;;18.80;99.90;;;;;;4974858;28;20072;-37
2022/06/24 12:05:32;;;;;;;5.03;2.97;;;18.80;99.90;;;;;;4967335;28;20745;-37
2022/06/24 12:08:00;;;;;;;5.88;2.85;;;18.80;99.90;;;;;;4968674;28;20467;-37
2022/06/24 12:10:27;;;;;;;3.67;2.85;;;18.80;99.90;;;;;;4986052;28;20106;-37
2022/06/24 12:13:00;;;;;;;4.35;3.20;;;18.80;99.90;;;;;;4983397;28;20053;-37
2022/06/24 12:15:47;;;;;;;3.22;2.92;;;18.80;99.90;;;;;;4987463;28;20494;-37
2022/06/24 12:18:14;;;;;;;2.97;2.50;;;18.80;99.90;;;;;;4974872;28;20506;-37
2022/06/24 12:20:40;;;;;;;6.38;3.10;;;18.80;99.90;;;;;;4967490;28;20524;-37
2022/06/24 12:23:20;;;;;;;3.42;2.85;;;18.90;99.90;;;;;;4983522;28;20507;-38
2022/06/24 12:25:48;;;;;;;3.28;2.40;;;18.90;99.90;;;;;;4973737;28;20553;-37
2022/06/24 12:28:22;;;;;;;3.45;2.72;;;18.90;99.90;;;;;;4969559;28;20054;-37
2022/06/24 12:30:55;;;;;;;4.75;2.95;;;19.00;99.90;;;;;;4986104;28;20059;-36
2022/06/24 12:33:21;;;;;;;3.88;2.83;;;19.10;99.90;;;;;;4968636;28;20054;-37
2022/06/24 12:35:49;;;;;;;3.30;2.80;;;19.10;99.90;;;;;;4985097;28;20050;-36
2022/06/24 12:38:15;;;;;;;5.05;3.20;;;19.20;99.90;;;;;;4969633;28;20413;-37
2022/06/24 12:40:41;;;;;;;4.05;3.10;;;19.20;99.90;;;;;;4979225;28;20038;-36
2022/06/24 12:43:14;;;;;;;4.78;3.13;;;19.30;99.90;;;;;;4987073;28;20468;-38
2022/06/24 12:45:42;;;;;;;4.88;3.20;;;19.30;99.90;;;;;;4984672;28;20507;-37
2022/06/24 12:51:01;;;;;;;5.97;3.97;;;19.50;99.90;;;;;;4984890;28;20057;-37
2022/06/24 12:53:28;;;;;;;6.22;3.97;;;19.50;99.90;;;;;;4984757;28;20050;-37
2022/06/24 12:55:53;;;;;;;6.72;4.35;;;19.60;99.90;;;;;;4985174;28;20050;-37
2022/06/24 12:58:19;;;;;;;6.90;4.07;;;19.70;99.90;;;;;;4971279;28;20042;-37
2022/06/24 13:00:45;;;;;;;6.28;4.32;;;19.80;99.90;;;;;;4985229;28;20562;-38
2022/06/24 13:03:17;;;;;;;6.93;5.00;;;19.90;99.90;;;;;;4985565;28;20050;-37
2022/06/24 13:05:43;;;;;;;7.32;5.25;;;19.90;99.90;;;;;;4985052;28;20054;-37